sensor_id;sensor_type;location;lat;lon;timestamp;P1;durP1;ratioP1;P2;durP2;ratioP2
84682;SDS011;74905;44.124;18.116;2024-02-21T00:01:50;99.22;;;39.78;;
84682;SDS011;74905;44.124;18.116;2024-02-21T00:04:15;101.80;;;39.75;;
84682;SDS011;74905;44.124;18.116;2024-02-21T00:06:41;143.60;;;52.30;;
84682;SDS011;74905;44.124;18.116;2024-02-21T00:09:06;119.53;;;46.13;;
84682;SDS011;74905;44.124;18.116;2024-02-21T00:11:32;158.85;;;62.10;;
84682;SDS011;74905;44.124;18.116;2024-02-21T00:13:58;125.22;;;48.75;;
84682;SDS011;74905;44.124;18.116;2024-02-21T00:16:23;92.85;;;37.42;;
84682;SDS011;74905;44.124;18.116;2024-02-21T00:18:49;127.53;;;46.85;;
84682;SDS011;74905;44.124;18.116;2024-02-21T00:21:14;139.40;;;50.20;;
84682;SDS011;74905;44.124;18.116;2024-02-21T00:23:46;135.35;;;49.33;;
84682;SDS011;74905;44.124;18.116;2024-02-21T00:26:12;157.05;;;54.80;;
84682;SDS011;74905;44.124;18.116;2024-02-21T00:28:38;110.80;;;44.78;;
84682;SDS011;74905;44.124;18.116;2024-02-21T00:31:04;106.70;;;39.63;;
84682;SDS011;74905;44.124;18.116;2024-02-21T00:33:30;94.88;;;40.22;;
84682;SDS011;74905;44.124;18.116;2024-02-21T00:35:55;107.05;;;42.70;;
84682;SDS011;74905;44.124;18.116;2024-02-21T00:38:21;94.63;;;40.15;;
84682;SDS011;74905;44.124;18.116;2024-02-21T00:40:46;92.93;;;41.45;;
84682;SDS011;74905;44.124;18.116;2024-02-21T00:43:12;107.38;;;44.03;;
84682;SDS011;74905;44.124;18.116;2024-02-21T00:45:38;111.50;;;44.28;;
84682;SDS011;74905;44.124;18.116;2024-02-21T00:48:04;94.82;;;39.15;;
84682;SDS011;74905;44.124;18.116;2024-02-21T00:50:29;113.78;;;43.63;;
84682;SDS011;74905;44.124;18.116;2024-02-21T00:52:55;113.28;;;43.70;;
84682;SDS011;74905;44.124;18.116;2024-02-21T00:55:21;121.93;;;47.10;;
84682;SDS011;74905;44.124;18.116;2024-02-21T00:57:46;114.63;;;48.55;;
84682;SDS011;74905;44.124;18.116;2024-02-21T01:00:12;124.07;;;49.28;;
84682;SDS011;74905;44.124;18.116;2024-02-21T01:02:38;129.25;;;49.70;;
84682;SDS011;74905;44.124;18.116;2024-02-21T01:05:04;137.63;;;53.83;;
84682;SDS011;74905;44.124;18.116;2024-02-21T01:07:30;141.38;;;52.65;;
84682;SDS011;74905;44.124;18.116;2024-02-21T01:09:55;142.73;;;53.65;;
84682;SDS011;74905;44.124;18.116;2024-02-21T01:12:21;121.65;;;47.65;;
84682;SDS011;74905;44.124;18.116;2024-02-21T01:14:47;113.32;;;43.88;;
84682;SDS011;74905;44.124;18.116;2024-02-21T01:17:12;93.88;;;38.80;;
84682;SDS011;74905;44.124;18.116;2024-02-21T01:19:38;88.05;;;37.70;;
84682;SDS011;74905;44.124;18.116;2024-02-21T01:22:04;85.30;;;37.50;;
84682;SDS011;74905;44.124;18.116;2024-02-21T01:24:29;87.38;;;37.50;;
84682;SDS011;74905;44.124;18.116;2024-02-21T01:26:55;81.38;;;36.38;;
84682;SDS011;74905;44.124;18.116;2024-02-21T01:29:20;97.78;;;39.67;;
84682;SDS011;74905;44.124;18.116;2024-02-21T01:31:46;94.45;;;39.60;;
84682;SDS011;74905;44.124;18.116;2024-02-21T01:34:12;93.15;;;37.90;;
84682;SDS011;74905;44.124;18.116;2024-02-21T01:36:38;95.78;;;43.05;;
84682;SDS011;74905;44.124;18.116;2024-02-21T01:39:04;99.85;;;41.92;;
84682;SDS011;74905;44.124;18.116;2024-02-21T01:41:30;102.30;;;40.40;;
84682;SDS011;74905;44.124;18.116;2024-02-21T01:43:56;95.95;;;40.63;;
84682;SDS011;74905;44.124;18.116;2024-02-21T01:46:23;93.53;;;37.42;;
84682;SDS011;74905;44.124;18.116;2024-02-21T01:48:56;86.85;;;36.88;;
84682;SDS011;74905;44.124;18.116;2024-02-21T01:51:26;84.88;;;37.40;;
84682;SDS011;74905;44.124;18.116;2024-02-21T01:53:52;99.03;;;40.33;;
84682;SDS011;74905;44.124;18.116;2024-02-21T01:56:20;102.43;;;40.60;;
84682;SDS011;74905;44.124;18.116;2024-02-21T01:58:46;83.82;;;36.60;;
84682;SDS011;74905;44.124;18.116;2024-02-21T02:01:12;78.53;;;35.95;;
84682;SDS011;74905;44.124;18.116;2024-02-21T02:03:38;89.55;;;38.25;;
84682;SDS011;74905;44.124;18.116;2024-02-21T02:06:05;84.03;;;37.15;;
84682;SDS011;74905;44.124;18.116;2024-02-21T02:08:31;79.22;;;33.35;;
84682;SDS011;74905;44.124;18.116;2024-02-21T02:10:57;77.20;;;34.08;;
84682;SDS011;74905;44.124;18.116;2024-02-21T02:13:23;81.97;;;35.72;;
84682;SDS011;74905;44.124;18.116;2024-02-21T02:15:49;77.72;;;33.00;;
84682;SDS011;74905;44.124;18.116;2024-02-21T02:18:15;81.20;;;33.15;;
84682;SDS011;74905;44.124;18.116;2024-02-21T02:20:43;87.72;;;36.42;;
84682;SDS011;74905;44.124;18.116;2024-02-21T02:23:10;78.15;;;35.72;;
84682;SDS011;74905;44.124;18.116;2024-02-21T02:25:42;89.60;;;37.00;;
84682;SDS011;74905;44.124;18.116;2024-02-21T02:28:08;77.45;;;34.67;;
84682;SDS011;74905;44.124;18.116;2024-02-21T02:30:35;83.13;;;34.30;;
84682;SDS011;74905;44.124;18.116;2024-02-21T02:33:04;77.85;;;34.08;;
84682;SDS011;74905;44.124;18.116;2024-02-21T02:35:30;65.35;;;29.80;;
84682;SDS011;74905;44.124;18.116;2024-02-21T02:37:56;59.78;;;26.83;;
84682;SDS011;74905;44.124;18.116;2024-02-21T02:40:21;64.45;;;27.67;;
84682;SDS011;74905;44.124;18.116;2024-02-21T02:42:47;64.40;;;29.00;;
84682;SDS011;74905;44.124;18.116;2024-02-21T02:45:14;64.03;;;28.33;;
84682;SDS011;74905;44.124;18.116;2024-02-21T02:47:40;65.15;;;29.42;;
84682;SDS011;74905;44.124;18.116;2024-02-21T02:50:06;64.63;;;29.98;;
84682;SDS011;74905;44.124;18.116;2024-02-21T02:52:33;65.72;;;27.52;;
84682;SDS011;74905;44.124;18.116;2024-02-21T02:54:58;64.65;;;28.88;;
84682;SDS011;74905;44.124;18.116;2024-02-21T02:57:24;61.20;;;26.95;;
84682;SDS011;74905;44.124;18.116;2024-02-21T02:59:50;56.78;;;27.83;;
84682;SDS011;74905;44.124;18.116;2024-02-21T03:02:16;65.55;;;29.25;;
84682;SDS011;74905;44.124;18.116;2024-02-21T03:04:42;61.22;;;27.23;;
84682;SDS011;74905;44.124;18.116;2024-02-21T03:07:08;62.25;;;28.92;;
84682;SDS011;74905;44.124;18.116;2024-02-21T03:09:36;63.90;;;28.55;;
84682;SDS011;74905;44.124;18.116;2024-02-21T03:12:03;64.35;;;28.42;;
84682;SDS011;74905;44.124;18.116;2024-02-21T03:14:29;60.33;;;27.67;;
84682;SDS011;74905;44.124;18.116;2024-02-21T03:16:55;68.82;;;28.20;;
84682;SDS011;74905;44.124;18.116;2024-02-21T03:19:21;68.07;;;30.67;;
84682;SDS011;74905;44.124;18.116;2024-02-21T03:21:47;68.97;;;30.40;;
84682;SDS011;74905;44.124;18.116;2024-02-21T03:24:15;65.75;;;29.67;;
84682;SDS011;74905;44.124;18.116;2024-02-21T03:26:41;75.75;;;31.10;;
84682;SDS011;74905;44.124;18.116;2024-02-21T03:29:07;85.88;;;36.20;;
84682;SDS011;74905;44.124;18.116;2024-02-21T03:31:33;82.80;;;36.20;;
84682;SDS011;74905;44.124;18.116;2024-02-21T03:34:00;74.75;;;34.53;;
84682;SDS011;74905;44.124;18.116;2024-02-21T03:36:26;76.68;;;34.70;;
84682;SDS011;74905;44.124;18.116;2024-02-21T03:38:51;81.43;;;37.85;;
84682;SDS011;74905;44.124;18.116;2024-02-21T03:41:17;82.30;;;35.60;;
84682;SDS011;74905;44.124;18.116;2024-02-21T03:43:42;93.22;;;38.58;;
84682;SDS011;74905;44.124;18.116;2024-02-21T03:46:08;85.75;;;37.80;;
84682;SDS011;74905;44.124;18.116;2024-02-21T03:48:33;84.80;;;39.17;;
84682;SDS011;74905;44.124;18.116;2024-02-21T03:50:59;86.32;;;35.72;;
84682;SDS011;74905;44.124;18.116;2024-02-21T03:53:25;87.28;;;36.22;;
84682;SDS011;74905;44.124;18.116;2024-02-21T03:55:50;62.47;;;30.45;;
84682;SDS011;74905;44.124;18.116;2024-02-21T03:58:16;71.45;;;32.35;;
84682;SDS011;74905;44.124;18.116;2024-02-21T04:00:41;69.78;;;31.05;;
84682;SDS011;74905;44.124;18.116;2024-02-21T04:03:07;62.20;;;29.75;;
84682;SDS011;74905;44.124;18.116;2024-02-21T04:05:33;72.70;;;32.58;;
84682;SDS011;74905;44.124;18.116;2024-02-21T04:07:58;58.38;;;26.98;;
84682;SDS011;74905;44.124;18.116;2024-02-21T04:10:24;46.40;;;23.83;;
84682;SDS011;74905;44.124;18.116;2024-02-21T04:12:49;54.42;;;24.33;;
84682;SDS011;74905;44.124;18.116;2024-02-21T04:15:18;54.05;;;24.42;;
84682;SDS011;74905;44.124;18.116;2024-02-21T04:17:44;53.92;;;25.17;;
84682;SDS011;74905;44.124;18.116;2024-02-21T04:20:14;51.58;;;23.95;;
84682;SDS011;74905;44.124;18.116;2024-02-21T04:22:43;51.13;;;26.38;;
84682;SDS011;74905;44.124;18.116;2024-02-21T04:25:10;56.47;;;25.50;;
84682;SDS011;74905;44.124;18.116;2024-02-21T04:27:36;60.38;;;26.92;;
84682;SDS011;74905;44.124;18.116;2024-02-21T04:30:03;56.78;;;26.30;;
84682;SDS011;74905;44.124;18.116;2024-02-21T04:32:29;51.92;;;24.13;;
84682;SDS011;74905;44.124;18.116;2024-02-21T04:34:54;66.97;;;28.90;;
84682;SDS011;74905;44.124;18.116;2024-02-21T04:37:20;75.07;;;29.38;;
84682;SDS011;74905;44.124;18.116;2024-02-21T04:39:45;59.17;;;26.45;;
84682;SDS011;74905;44.124;18.116;2024-02-21T04:42:11;45.55;;;22.15;;
84682;SDS011;74905;44.124;18.116;2024-02-21T04:44:37;43.22;;;20.58;;
84682;SDS011;74905;44.124;18.116;2024-02-21T04:47:03;45.00;;;20.52;;
84682;SDS011;74905;44.124;18.116;2024-02-21T04:49:29;41.25;;;20.70;;
84682;SDS011;74905;44.124;18.116;2024-02-21T04:51:55;42.60;;;19.98;;
84682;SDS011;74905;44.124;18.116;2024-02-21T04:54:20;53.10;;;23.55;;
84682;SDS011;74905;44.124;18.116;2024-02-21T04:56:46;45.90;;;20.77;;
84682;SDS011;74905;44.124;18.116;2024-02-21T04:59:11;41.35;;;20.05;;
84682;SDS011;74905;44.124;18.116;2024-02-21T05:01:37;41.30;;;20.35;;
84682;SDS011;74905;44.124;18.116;2024-02-21T05:04:02;48.00;;;21.17;;
84682;SDS011;74905;44.124;18.116;2024-02-21T05:06:28;41.95;;;19.85;;
84682;SDS011;74905;44.124;18.116;2024-02-21T05:08:54;46.90;;;21.45;;
84682;SDS011;74905;44.124;18.116;2024-02-21T05:11:23;47.80;;;23.85;;
84682;SDS011;74905;44.124;18.116;2024-02-21T05:13:50;54.30;;;24.23;;
84682;SDS011;74905;44.124;18.116;2024-02-21T05:16:15;50.63;;;23.48;;
84682;SDS011;74905;44.124;18.116;2024-02-21T05:18:41;49.55;;;22.65;;
84682;SDS011;74905;44.124;18.116;2024-02-21T05:21:08;51.30;;;24.63;;
84682;SDS011;74905;44.124;18.116;2024-02-21T05:23:33;60.75;;;28.10;;
84682;SDS011;74905;44.124;18.116;2024-02-21T05:25:59;63.95;;;29.90;;
84682;SDS011;74905;44.124;18.116;2024-02-21T05:28:24;59.47;;;30.30;;
84682;SDS011;74905;44.124;18.116;2024-02-21T05:30:50;61.78;;;29.20;;
84682;SDS011;74905;44.124;18.116;2024-02-21T05:33:15;62.80;;;29.98;;
84682;SDS011;74905;44.124;18.116;2024-02-21T05:35:46;59.97;;;30.02;;
84682;SDS011;74905;44.124;18.116;2024-02-21T05:38:13;60.22;;;29.33;;
84682;SDS011;74905;44.124;18.116;2024-02-21T05:40:39;57.60;;;28.98;;
84682;SDS011;74905;44.124;18.116;2024-02-21T05:43:06;59.13;;;28.92;;
84682;SDS011;74905;44.124;18.116;2024-02-21T05:45:32;56.15;;;28.15;;
84682;SDS011;74905;44.124;18.116;2024-02-21T05:47:58;59.13;;;29.23;;
84682;SDS011;74905;44.124;18.116;2024-02-21T05:50:24;62.20;;;30.90;;
84682;SDS011;74905;44.124;18.116;2024-02-21T05:52:53;76.43;;;34.38;;
84682;SDS011;74905;44.124;18.116;2024-02-21T05:55:19;63.20;;;29.55;;
84682;SDS011;74905;44.124;18.116;2024-02-21T05:57:45;58.17;;;27.52;;
84682;SDS011;74905;44.124;18.116;2024-02-21T06:00:11;58.88;;;28.50;;
84682;SDS011;74905;44.124;18.116;2024-02-21T06:02:39;50.53;;;24.00;;
84682;SDS011;74905;44.124;18.116;2024-02-21T06:05:06;44.83;;;23.85;;
84682;SDS011;74905;44.124;18.116;2024-02-21T06:07:35;45.08;;;23.98;;
84682;SDS011;74905;44.124;18.116;2024-02-21T06:10:01;46.15;;;24.60;;
84682;SDS011;74905;44.124;18.116;2024-02-21T06:12:27;51.13;;;23.13;;
84682;SDS011;74905;44.124;18.116;2024-02-21T06:14:53;55.45;;;25.00;;
84682;SDS011;74905;44.124;18.116;2024-02-21T06:17:19;49.92;;;23.60;;
84682;SDS011;74905;44.124;18.116;2024-02-21T06:19:44;43.53;;;23.63;;
84682;SDS011;74905;44.124;18.116;2024-02-21T06:22:10;43.13;;;23.70;;
84682;SDS011;74905;44.124;18.116;2024-02-21T06:24:36;45.00;;;22.88;;
84682;SDS011;74905;44.124;18.116;2024-02-21T06:27:05;45.90;;;22.70;;
84682;SDS011;74905;44.124;18.116;2024-02-21T06:29:32;59.80;;;24.55;;
84682;SDS011;74905;44.124;18.116;2024-02-21T06:31:58;50.95;;;24.23;;
84682;SDS011;74905;44.124;18.116;2024-02-21T06:34:24;76.93;;;35.25;;
84682;SDS011;74905;44.124;18.116;2024-02-21T06:36:51;79.28;;;35.42;;
84682;SDS011;74905;44.124;18.116;2024-02-21T06:39:17;82.00;;;37.33;;
84682;SDS011;74905;44.124;18.116;2024-02-21T06:41:43;75.47;;;37.22;;
84682;SDS011;74905;44.124;18.116;2024-02-21T06:44:09;83.30;;;40.35;;
84682;SDS011;74905;44.124;18.116;2024-02-21T06:46:35;75.68;;;35.92;;
84682;SDS011;74905;44.124;18.116;2024-02-21T06:49:01;61.28;;;26.58;;
84682;SDS011;74905;44.124;18.116;2024-02-21T06:51:28;54.67;;;26.83;;
84682;SDS011;74905;44.124;18.116;2024-02-21T06:53:54;59.40;;;25.70;;
84682;SDS011;74905;44.124;18.116;2024-02-21T06:56:23;45.47;;;23.98;;
84682;SDS011;74905;44.124;18.116;2024-02-21T06:58:54;53.90;;;24.45;;
84682;SDS011;74905;44.124;18.116;2024-02-21T07:01:21;52.13;;;25.42;;
84682;SDS011;74905;44.124;18.116;2024-02-21T07:03:46;59.90;;;28.70;;
84682;SDS011;74905;44.124;18.116;2024-02-21T07:06:12;61.45;;;27.38;;
84682;SDS011;74905;44.124;18.116;2024-02-21T07:08:38;62.42;;;30.08;;
84682;SDS011;74905;44.124;18.116;2024-02-21T07:11:04;73.40;;;32.42;;
84682;SDS011;74905;44.124;18.116;2024-02-21T07:13:30;73.90;;;32.97;;
84682;SDS011;74905;44.124;18.116;2024-02-21T07:15:56;63.88;;;31.33;;
84682;SDS011;74905;44.124;18.116;2024-02-21T07:18:21;54.88;;;27.95;;
84682;SDS011;74905;44.124;18.116;2024-02-21T07:20:47;60.58;;;29.90;;
84682;SDS011;74905;44.124;18.116;2024-02-21T07:23:13;64.25;;;32.05;;
84682;SDS011;74905;44.124;18.116;2024-02-21T07:25:38;60.08;;;31.65;;
84682;SDS011;74905;44.124;18.116;2024-02-21T07:28:08;68.70;;;32.33;;
84682;SDS011;74905;44.124;18.116;2024-02-21T07:30:34;89.82;;;40.42;;
84682;SDS011;74905;44.124;18.116;2024-02-21T07:33:03;81.60;;;39.42;;
84682;SDS011;74905;44.124;18.116;2024-02-21T07:35:28;90.60;;;41.78;;
84682;SDS011;74905;44.124;18.116;2024-02-21T07:37:54;94.03;;;44.22;;
84682;SDS011;74905;44.124;18.116;2024-02-21T07:40:23;97.97;;;49.22;;
84682;SDS011;74905;44.124;18.116;2024-02-21T07:42:48;111.00;;;55.15;;
84682;SDS011;74905;44.124;18.116;2024-02-21T07:45:14;122.20;;;59.70;;
84682;SDS011;74905;44.124;18.116;2024-02-21T07:47:40;117.63;;;56.13;;
84682;SDS011;74905;44.124;18.116;2024-02-21T07:50:06;115.97;;;57.47;;
84682;SDS011;74905;44.124;18.116;2024-02-21T07:52:32;97.40;;;50.45;;
84682;SDS011;74905;44.124;18.116;2024-02-21T07:54:58;94.55;;;45.45;;
84682;SDS011;74905;44.124;18.116;2024-02-21T07:57:23;74.32;;;39.08;;
84682;SDS011;74905;44.124;18.116;2024-02-21T07:59:49;71.53;;;37.30;;
84682;SDS011;74905;44.124;18.116;2024-02-21T08:02:14;78.53;;;38.60;;
84682;SDS011;74905;44.124;18.116;2024-02-21T08:04:44;75.40;;;40.78;;
84682;SDS011;74905;44.124;18.116;2024-02-21T08:07:09;87.50;;;44.58;;
84682;SDS011;74905;44.124;18.116;2024-02-21T08:09:35;92.18;;;45.50;;
84682;SDS011;74905;44.124;18.116;2024-02-21T08:12:03;92.93;;;46.60;;
84682;SDS011;74905;44.124;18.116;2024-02-21T08:14:29;98.10;;;48.42;;
84682;SDS011;74905;44.124;18.116;2024-02-21T08:16:55;95.10;;;44.92;;
84682;SDS011;74905;44.124;18.116;2024-02-21T08:19:21;91.68;;;45.03;;
84682;SDS011;74905;44.124;18.116;2024-02-21T08:21:49;88.65;;;43.53;;
84682;SDS011;74905;44.124;18.116;2024-02-21T08:24:15;94.63;;;42.38;;
84682;SDS011;74905;44.124;18.116;2024-02-21T08:26:44;85.70;;;40.65;;
84682;SDS011;74905;44.124;18.116;2024-02-21T08:29:10;80.93;;;39.22;;
84682;SDS011;74905;44.124;18.116;2024-02-21T08:31:37;82.45;;;40.17;;
84682;SDS011;74905;44.124;18.116;2024-02-21T08:34:02;79.68;;;39.78;;
84682;SDS011;74905;44.124;18.116;2024-02-21T08:36:35;89.18;;;41.15;;
84682;SDS011;74905;44.124;18.116;2024-02-21T08:39:01;80.47;;;39.13;;
84682;SDS011;74905;44.124;18.116;2024-02-21T08:41:30;93.30;;;42.33;;
84682;SDS011;74905;44.124;18.116;2024-02-21T08:43:56;79.05;;;40.22;;
84682;SDS011;74905;44.124;18.116;2024-02-21T08:46:22;79.75;;;39.08;;
84682;SDS011;74905;44.124;18.116;2024-02-21T08:48:52;45.88;;;21.23;;
84682;SDS011;74905;44.124;18.116;2024-02-21T08:51:18;51.45;;;22.73;;
84682;SDS011;74905;44.124;18.116;2024-02-21T08:53:44;27.17;;;13.02;;
84682;SDS011;74905;44.124;18.116;2024-02-21T08:56:10;32.42;;;14.50;;
84682;SDS011;74905;44.124;18.116;2024-02-21T08:58:36;35.30;;;15.93;;
84682;SDS011;74905;44.124;18.116;2024-02-21T09:01:03;32.65;;;14.25;;
84682;SDS011;74905;44.124;18.116;2024-02-21T09:03:32;23.05;;;11.02;;
84682;SDS011;74905;44.124;18.116;2024-02-21T09:05:58;17.00;;;8.48;;
84682;SDS011;74905;44.124;18.116;2024-02-21T09:08:24;7.95;;;4.85;;
84682;SDS011;74905;44.124;18.116;2024-02-21T09:10:50;8.63;;;4.35;;
84682;SDS011;74905;44.124;18.116;2024-02-21T09:13:16;17.98;;;9.73;;
84682;SDS011;74905;44.124;18.116;2024-02-21T09:15:42;10.25;;;6.57;;
84682;SDS011;74905;44.124;18.116;2024-02-21T09:18:08;7.95;;;5.07;;
84682;SDS011;74905;44.124;18.116;2024-02-21T09:20:33;11.75;;;5.95;;
84682;SDS011;74905;44.124;18.116;2024-02-21T09:22:59;15.70;;;7.25;;
84682;SDS011;74905;44.124;18.116;2024-02-21T09:25:24;8.65;;;5.18;;
84682;SDS011;74905;44.124;18.116;2024-02-21T09:27:50;8.02;;;4.30;;
84682;SDS011;74905;44.124;18.116;2024-02-21T09:30:17;11.43;;;5.78;;
84682;SDS011;74905;44.124;18.116;2024-02-21T09:32:44;8.88;;;4.70;;
84682;SDS011;74905;44.124;18.116;2024-02-21T09:35:09;7.60;;;4.63;;
84682;SDS011;74905;44.124;18.116;2024-02-21T09:37:35;10.25;;;4.28;;
84682;SDS011;74905;44.124;18.116;2024-02-21T09:40:01;12.68;;;7.03;;
84682;SDS011;74905;44.124;18.116;2024-02-21T09:42:34;13.95;;;5.00;;
84682;SDS011;74905;44.124;18.116;2024-02-21T09:47:50;12.07;;;5.53;;
84682;SDS011;74905;44.124;18.116;2024-02-21T09:50:39;17.40;;;6.97;;
84682;SDS011;74905;44.124;18.116;2024-02-21T09:53:06;6.57;;;3.70;;
84682;SDS011;74905;44.124;18.116;2024-02-21T09:55:36;13.43;;;5.95;;
84682;SDS011;74905;44.124;18.116;2024-02-21T09:58:05;17.63;;;8.60;;
84682;SDS011;74905;44.124;18.116;2024-02-21T10:00:32;32.92;;;15.13;;
84682;SDS011;74905;44.124;18.116;2024-02-21T10:02:58;26.02;;;12.85;;
84682;SDS011;74905;44.124;18.116;2024-02-21T10:05:24;21.85;;;9.00;;
84682;SDS011;74905;44.124;18.116;2024-02-21T10:07:51;19.33;;;7.57;;
84682;SDS011;74905;44.124;18.116;2024-02-21T10:10:17;29.38;;;12.02;;
84682;SDS011;74905;44.124;18.116;2024-02-21T10:12:50;28.52;;;12.88;;
84682;SDS011;74905;44.124;18.116;2024-02-21T10:15:19;19.60;;;8.15;;
84682;SDS011;74905;44.124;18.116;2024-02-21T10:17:59;21.98;;;10.20;;
84682;SDS011;74905;44.124;18.116;2024-02-21T10:20:26;22.30;;;11.00;;
84682;SDS011;74905;44.124;18.116;2024-02-21T10:23:03;33.78;;;9.68;;
84682;SDS011;74905;44.124;18.116;2024-02-21T10:25:36;20.77;;;10.50;;
84682;SDS011;74905;44.124;18.116;2024-02-21T10:28:07;24.15;;;11.73;;
84682;SDS011;74905;44.124;18.116;2024-02-21T10:30:32;25.15;;;10.75;;
84682;SDS011;74905;44.124;18.116;2024-02-21T10:32:58;15.98;;;6.78;;
84682;SDS011;74905;44.124;18.116;2024-02-21T10:35:27;8.80;;;4.70;;
84682;SDS011;74905;44.124;18.116;2024-02-21T10:37:58;11.38;;;6.72;;
84682;SDS011;74905;44.124;18.116;2024-02-21T10:40:27;23.38;;;9.93;;
84682;SDS011;74905;44.124;18.116;2024-02-21T10:42:59;14.18;;;7.60;;
84682;SDS011;74905;44.124;18.116;2024-02-21T10:45:51;13.30;;;7.05;;
84682;SDS011;74905;44.124;18.116;2024-02-21T10:48:20;10.02;;;4.85;;
84682;SDS011;74905;44.124;18.116;2024-02-21T10:50:57;19.13;;;7.93;;
84682;SDS011;74905;44.124;18.116;2024-02-21T10:53:50;10.98;;;5.97;;
84682;SDS011;74905;44.124;18.116;2024-02-21T10:56:41;9.60;;;5.25;;
84682;SDS011;74905;44.124;18.116;2024-02-21T10:59:08;9.02;;;4.57;;
84682;SDS011;74905;44.124;18.116;2024-02-21T11:01:34;5.50;;;2.65;;
84682;SDS011;74905;44.124;18.116;2024-02-21T11:04:04;5.25;;;2.97;;
84682;SDS011;74905;44.124;18.116;2024-02-21T11:06:35;5.07;;;3.00;;
84682;SDS011;74905;44.124;18.116;2024-02-21T11:09:06;6.15;;;3.53;;
84682;SDS011;74905;44.124;18.116;2024-02-21T11:11:34;5.80;;;3.20;;
84682;SDS011;74905;44.124;18.116;2024-02-21T11:14:07;5.55;;;3.33;;
84682;SDS011;74905;44.124;18.116;2024-02-21T11:16:42;4.22;;;1.92;;
84682;SDS011;74905;44.124;18.116;2024-02-21T11:19:20;3.83;;;2.15;;
84682;SDS011;74905;44.124;18.116;2024-02-21T11:21:54;3.72;;;2.22;;
84682;SDS011;74905;44.124;18.116;2024-02-21T11:24:27;5.50;;;2.33;;
84682;SDS011;74905;44.124;18.116;2024-02-21T11:27:08;5.60;;;2.65;;
84682;SDS011;74905;44.124;18.116;2024-02-21T11:29:53;3.73;;;2.00;;
84682;SDS011;74905;44.124;18.116;2024-02-21T11:32:21;2.35;;;1.70;;
84682;SDS011;74905;44.124;18.116;2024-02-21T11:34:54;2.60;;;1.50;;
84682;SDS011;74905;44.124;18.116;2024-02-21T11:37:29;5.03;;;2.20;;
84682;SDS011;74905;44.124;18.116;2024-02-21T11:40:02;2.40;;;1.77;;
84682;SDS011;74905;44.124;18.116;2024-02-21T11:42:29;2.78;;;1.73;;
84682;SDS011;74905;44.124;18.116;2024-02-21T11:44:56;2.63;;;1.75;;
84682;SDS011;74905;44.124;18.116;2024-02-21T11:47:23;2.63;;;2.00;;
84682;SDS011;74905;44.124;18.116;2024-02-21T11:49:49;5.05;;;1.58;;
84682;SDS011;74905;44.124;18.116;2024-02-21T11:52:15;3.22;;;1.80;;
84682;SDS011;74905;44.124;18.116;2024-02-21T11:54:44;6.32;;;1.90;;
84682;SDS011;74905;44.124;18.116;2024-02-21T11:57:10;4.32;;;2.50;;
84682;SDS011;74905;44.124;18.116;2024-02-21T11:59:39;4.00;;;2.70;;
84682;SDS011;74905;44.124;18.116;2024-02-21T12:02:06;3.85;;;2.58;;
84682;SDS011;74905;44.124;18.116;2024-02-21T12:04:32;3.47;;;2.70;;
84682;SDS011;74905;44.124;18.116;2024-02-21T12:06:58;7.07;;;3.28;;
84682;SDS011;74905;44.124;18.116;2024-02-21T12:09:25;4.97;;;2.63;;
84682;SDS011;74905;44.124;18.116;2024-02-21T12:12:00;4.25;;;2.13;;
84682;SDS011;74905;44.124;18.116;2024-02-21T12:14:31;4.30;;;2.40;;
84682;SDS011;74905;44.124;18.116;2024-02-21T12:17:00;4.53;;;2.30;;
84682;SDS011;74905;44.124;18.116;2024-02-21T12:19:30;7.57;;;3.75;;
84682;SDS011;74905;44.124;18.116;2024-02-21T12:21:58;4.25;;;3.00;;
84682;SDS011;74905;44.124;18.116;2024-02-21T12:24:25;3.80;;;2.53;;
84682;SDS011;74905;44.124;18.116;2024-02-21T12:26:52;4.60;;;2.78;;
84682;SDS011;74905;44.124;18.116;2024-02-21T12:29:19;5.35;;;2.45;;
84682;SDS011;74905;44.124;18.116;2024-02-21T12:31:49;4.93;;;2.35;;
84682;SDS011;74905;44.124;18.116;2024-02-21T12:34:15;3.67;;;2.42;;
84682;SDS011;74905;44.124;18.116;2024-02-21T12:36:45;5.97;;;2.25;;
84682;SDS011;74905;44.124;18.116;2024-02-21T12:39:12;5.28;;;3.03;;
84682;SDS011;74905;44.124;18.116;2024-02-21T12:41:38;4.65;;;3.00;;
84682;SDS011;74905;44.124;18.116;2024-02-21T12:44:05;4.50;;;2.58;;
84682;SDS011;74905;44.124;18.116;2024-02-21T12:46:33;4.03;;;2.53;;
84682;SDS011;74905;44.124;18.116;2024-02-21T12:49:01;5.25;;;2.55;;
84682;SDS011;74905;44.124;18.116;2024-02-21T12:51:28;5.05;;;2.85;;
84682;SDS011;74905;44.124;18.116;2024-02-21T12:53:54;5.53;;;3.17;;
84682;SDS011;74905;44.124;18.116;2024-02-21T12:56:20;4.47;;;3.15;;
84682;SDS011;74905;44.124;18.116;2024-02-21T12:58:46;5.25;;;2.83;;
84682;SDS011;74905;44.124;18.116;2024-02-21T13:01:12;4.55;;;3.05;;
84682;SDS011;74905;44.124;18.116;2024-02-21T13:03:37;6.90;;;2.95;;
84682;SDS011;74905;44.124;18.116;2024-02-21T13:06:03;3.67;;;3.03;;
84682;SDS011;74905;44.124;18.116;2024-02-21T13:08:30;5.53;;;3.03;;
84682;SDS011;74905;44.124;18.116;2024-02-21T13:10:55;3.83;;;2.88;;
84682;SDS011;74905;44.124;18.116;2024-02-21T13:13:21;4.50;;;2.83;;
84682;SDS011;74905;44.124;18.116;2024-02-21T13:15:47;5.30;;;3.95;;
84682;SDS011;74905;44.124;18.116;2024-02-21T13:18:12;7.05;;;3.80;;
84682;SDS011;74905;44.124;18.116;2024-02-21T13:20:38;5.95;;;3.42;;
84682;SDS011;74905;44.124;18.116;2024-02-21T13:23:04;5.47;;;3.22;;
84682;SDS011;74905;44.124;18.116;2024-02-21T13:25:29;5.35;;;3.35;;
84682;SDS011;74905;44.124;18.116;2024-02-21T13:27:57;7.03;;;3.30;;
84682;SDS011;74905;44.124;18.116;2024-02-21T13:30:22;5.78;;;3.50;;
84682;SDS011;74905;44.124;18.116;2024-02-21T13:32:48;5.85;;;3.70;;
84682;SDS011;74905;44.124;18.116;2024-02-21T13:35:13;6.60;;;3.40;;
84682;SDS011;74905;44.124;18.116;2024-02-21T13:37:43;7.85;;;3.38;;
84682;SDS011;74905;44.124;18.116;2024-02-21T13:40:09;7.05;;;3.40;;
84682;SDS011;74905;44.124;18.116;2024-02-21T13:42:35;7.38;;;3.28;;
84682;SDS011;74905;44.124;18.116;2024-02-21T13:45:01;6.40;;;3.40;;
84682;SDS011;74905;44.124;18.116;2024-02-21T13:47:27;9.57;;;3.83;;
84682;SDS011;74905;44.124;18.116;2024-02-21T13:49:53;5.25;;;4.15;;
84682;SDS011;74905;44.124;18.116;2024-02-21T13:52:18;7.00;;;4.55;;
84682;SDS011;74905;44.124;18.116;2024-02-21T13:54:47;6.25;;;4.43;;
84682;SDS011;74905;44.124;18.116;2024-02-21T13:57:13;6.43;;;3.88;;
84682;SDS011;74905;44.124;18.116;2024-02-21T13:59:39;6.15;;;4.05;;
84682;SDS011;74905;44.124;18.116;2024-02-21T14:02:05;6.68;;;4.03;;
84682;SDS011;74905;44.124;18.116;2024-02-21T14:04:34;6.07;;;3.53;;
84682;SDS011;74905;44.124;18.116;2024-02-21T14:07:00;4.68;;;3.45;;
84682;SDS011;74905;44.124;18.116;2024-02-21T14:09:26;7.88;;;4.68;;
84682;SDS011;74905;44.124;18.116;2024-02-21T14:11:54;5.93;;;3.90;;
84682;SDS011;74905;44.124;18.116;2024-02-21T14:14:22;7.97;;;4.20;;
84682;SDS011;74905;44.124;18.116;2024-02-21T14:16:47;5.60;;;3.70;;
84682;SDS011;74905;44.124;18.116;2024-02-21T14:19:13;6.28;;;3.70;;